sensor_id;sensor_type;location;lat;lon;timestamp;P1;durP1;ratioP1;P2;durP2;ratioP2
79583;SDS011;69053;57.338;18.700;2023-04-08T00:03:57;14.20;;;6.18;;
79583;SDS011;69053;57.338;18.700;2023-04-08T00:08:58;10.97;;;6.30;;
79583;SDS011;69053;57.338;18.700;2023-04-08T00:13:59;16.52;;;7.13;;
79583;SDS011;69053;57.338;18.700;2023-04-08T00:19:00;12.90;;;5.18;;
79583;SDS011;69053;57.338;18.700;2023-04-08T00:24:00;10.40;;;5.05;;
79583;SDS011;69053;57.338;18.700;2023-04-08T00:29:01;19.90;;;6.32;;
79583;SDS011;69053;57.338;18.700;2023-04-08T00:34:02;15.70;;;6.82;;
79583;SDS011;69053;57.338;18.700;2023-04-08T00:39:03;15.90;;;6.60;;
79583;SDS011;69053;57.338;18.700;2023-04-08T00:44:05;18.85;;;6.32;;
79583;SDS011;69053;57.338;18.700;2023-04-08T00:49:06;12.15;;;6.38;;
79583;SDS011;69053;57.338;18.700;2023-04-08T00:54:07;14.98;;;6.50;;
79583;SDS011;69053;57.338;18.700;2023-04-08T00:59:07;14.18;;;6.10;;
79583;SDS011;69053;57.338;18.700;2023-04-08T01:09:20;12.18;;;6.20;;
79583;SDS011;69053;57.338;18.700;2023-04-08T01:14:23;15.00;;;7.65;;
79583;SDS011;69053;57.338;18.700;2023-04-08T01:19:28;14.73;;;5.50;;
79583;SDS011;69053;57.338;18.700;2023-04-08T01:24:32;16.20;;;8.10;;
79583;SDS011;69053;57.338;18.700;2023-04-08T01:29:39;17.13;;;7.15;;
79583;SDS011;69053;57.338;18.700;2023-04-08T01:34:41;16.33;;;7.07;;
79583;SDS011;69053;57.338;18.700;2023-04-08T01:39:42;14.63;;;6.85;;
79583;SDS011;69053;57.338;18.700;2023-04-08T01:44:44;12.45;;;5.78;;
79583;SDS011;69053;57.338;18.700;2023-04-08T01:49:45;13.98;;;6.60;;
79583;SDS011;69053;57.338;18.700;2023-04-08T01:54:46;12.00;;;5.43;;
79583;SDS011;69053;57.338;18.700;2023-04-08T01:59:47;13.32;;;6.15;;
79583;SDS011;69053;57.338;18.700;2023-04-08T02:04:50;13.55;;;6.60;;
79583;SDS011;69053;57.338;18.700;2023-04-08T02:09:52;10.88;;;4.97;;
79583;SDS011;69053;57.338;18.700;2023-04-08T02:14:53;7.53;;;3.88;;
79583;SDS011;69053;57.338;18.700;2023-04-08T02:20:36;11.60;;;6.25;;
79583;SDS011;69053;57.338;18.700;2023-04-08T02:25:21;15.73;;;7.03;;
79583;SDS011;69053;57.338;18.700;2023-04-08T02:30:24;11.25;;;5.93;;
79583;SDS011;69053;57.338;18.700;2023-04-08T02:35:26;14.27;;;6.60;;
79583;SDS011;69053;57.338;18.700;2023-04-08T02:40:28;12.63;;;6.38;;
79583;SDS011;69053;57.338;18.700;2023-04-08T02:45:31;14.30;;;6.72;;
79583;SDS011;69053;57.338;18.700;2023-04-08T02:50:37;13.32;;;6.28;;
79583;SDS011;69053;57.338;18.700;2023-04-08T02:55:39;11.98;;;6.10;;
79583;SDS011;69053;57.338;18.700;2023-04-08T03:00:40;13.07;;;6.65;;
79583;SDS011;69053;57.338;18.700;2023-04-08T03:05:40;13.45;;;6.53;;
79583;SDS011;69053;57.338;18.700;2023-04-08T03:10:41;15.18;;;7.35;;
79583;SDS011;69053;57.338;18.700;2023-04-08T03:15:42;12.98;;;5.30;;
79583;SDS011;69053;57.338;18.700;2023-04-08T03:20:42;14.23;;;7.57;;
79583;SDS011;69053;57.338;18.700;2023-04-08T03:25:43;12.13;;;5.47;;
79583;SDS011;69053;57.338;18.700;2023-04-08T03:30:43;13.20;;;7.32;;
79583;SDS011;69053;57.338;18.700;2023-04-08T03:35:44;14.35;;;6.30;;
79583;SDS011;69053;57.338;18.700;2023-04-08T03:40:45;16.60;;;6.72;;
79583;SDS011;69053;57.338;18.700;2023-04-08T03:45:45;22.13;;;8.02;;
79583;SDS011;69053;57.338;18.700;2023-04-08T03:50:45;16.58;;;7.47;;
79583;SDS011;69053;57.338;18.700;2023-04-08T03:55:47;13.50;;;7.13;;
79583;SDS011;69053;57.338;18.700;2023-04-08T04:00:49;16.02;;;7.93;;
79583;SDS011;69053;57.338;18.700;2023-04-08T04:05:51;14.80;;;7.68;;
79583;SDS011;69053;57.338;18.700;2023-04-08T04:10:51;15.50;;;7.70;;
79583;SDS011;69053;57.338;18.700;2023-04-08T04:15:52;15.27;;;7.40;;
79583;SDS011;69053;57.338;18.700;2023-04-08T04:20:52;14.63;;;7.00;;
79583;SDS011;69053;57.338;18.700;2023-04-08T04:25:52;12.95;;;5.70;;
79583;SDS011;69053;57.338;18.700;2023-04-08T04:30:53;14.18;;;7.65;;
79583;SDS011;69053;57.338;18.700;2023-04-08T04:35:54;15.60;;;6.13;;
79583;SDS011;69053;57.338;18.700;2023-04-08T04:40:55;16.42;;;7.63;;
79583;SDS011;69053;57.338;18.700;2023-04-08T04:45:56;14.32;;;6.38;;
79583;SDS011;69053;57.338;18.700;2023-04-08T04:50:58;14.82;;;7.13;;
79583;SDS011;69053;57.338;18.700;2023-04-08T04:56:00;14.48;;;6.35;;
79583;SDS011;69053;57.338;18.700;2023-04-08T05:01:00;13.40;;;6.78;;
79583;SDS011;69053;57.338;18.700;2023-04-08T05:06:01;11.48;;;5.82;;
79583;SDS011;69053;57.338;18.700;2023-04-08T05:11:02;16.15;;;7.15;;
79583;SDS011;69053;57.338;18.700;2023-04-08T05:16:02;12.23;;;5.90;;
79583;SDS011;69053;57.338;18.700;2023-04-08T05:21:03;14.35;;;6.13;;
79583;SDS011;69053;57.338;18.700;2023-04-08T05:26:05;11.45;;;5.85;;
79583;SDS011;69053;57.338;18.700;2023-04-08T05:31:07;11.55;;;5.20;;
79583;SDS011;69053;57.338;18.700;2023-04-08T05:36:09;11.32;;;5.13;;
79583;SDS011;69053;57.338;18.700;2023-04-08T05:41:10;19.88;;;5.82;;
79583;SDS011;69053;57.338;18.700;2023-04-08T05:46:10;8.25;;;4.93;;
79583;SDS011;69053;57.338;18.700;2023-04-08T05:51:14;8.95;;;3.97;;
79583;SDS011;69053;57.338;18.700;2023-04-08T05:56:16;7.63;;;3.90;;
79583;SDS011;69053;57.338;18.700;2023-04-08T06:01:17;8.30;;;4.32;;
79583;SDS011;69053;57.338;18.700;2023-04-08T06:06:17;9.25;;;3.83;;
79583;SDS011;69053;57.338;18.700;2023-04-08T06:11:18;5.75;;;2.35;;
79583;SDS011;69053;57.338;18.700;2023-04-08T06:16:19;7.25;;;3.97;;
79583;SDS011;69053;57.338;18.700;2023-04-08T06:21:20;8.30;;;3.55;;
79583;SDS011;69053;57.338;18.700;2023-04-08T06:26:20;7.70;;;3.80;;
79583;SDS011;69053;57.338;18.700;2023-04-08T06:31:21;8.55;;;3.30;;
79583;SDS011;69053;57.338;18.700;2023-04-08T06:36:24;5.88;;;2.83;;
79583;SDS011;69053;57.338;18.700;2023-04-08T06:41:25;5.53;;;3.15;;
79583;SDS011;69053;57.338;18.700;2023-04-08T06:46:29;6.25;;;3.00;;
79583;SDS011;69053;57.338;18.700;2023-04-08T06:51:29;4.35;;;2.92;;
79583;SDS011;69053;57.338;18.700;2023-04-08T06:56:30;6.13;;;3.35;;
79583;SDS011;69053;57.338;18.700;2023-04-08T07:01:31;5.22;;;2.67;;
79583;SDS011;69053;57.338;18.700;2023-04-08T07:06:32;5.43;;;2.53;;
79583;SDS011;69053;57.338;18.700;2023-04-08T07:11:32;5.78;;;2.53;;
79583;SDS011;69053;57.338;18.700;2023-04-08T07:16:33;6.53;;;2.63;;
79583;SDS011;69053;57.338;18.700;2023-04-08T07:21:33;5.88;;;2.35;;
79583;SDS011;69053;57.338;18.700;2023-04-08T07:26:38;3.80;;;1.95;;
79583;SDS011;69053;57.338;18.700;2023-04-08T07:31:39;3.55;;;1.92;;
79583;SDS011;69053;57.338;18.700;2023-04-08T07:36:40;4.30;;;1.73;;
79583;SDS011;69053;57.338;18.700;2023-04-08T07:41:40;5.35;;;1.85;;
79583;SDS011;69053;57.338;18.700;2023-04-08T07:46:41;4.35;;;2.10;;
79583;SDS011;69053;57.338;18.700;2023-04-08T07:51:41;5.82;;;2.83;;
79583;SDS011;69053;57.338;18.700;2023-04-08T07:56:42;4.43;;;2.88;;
79583;SDS011;69053;57.338;18.700;2023-04-08T08:01:46;4.65;;;2.00;;
79583;SDS011;69053;57.338;18.700;2023-04-08T08:06:47;3.50;;;1.80;;
79583;SDS011;69053;57.338;18.700;2023-04-08T08:11:47;6.28;;;2.47;;
79583;SDS011;69053;57.338;18.700;2023-04-08T08:16:48;6.63;;;2.72;;
79583;SDS011;69053;57.338;18.700;2023-04-08T08:21:48;5.03;;;2.30;;
79583;SDS011;69053;57.338;18.700;2023-04-08T08:26:50;3.15;;;2.17;;
79583;SDS011;69053;57.338;18.700;2023-04-08T08:31:51;4.10;;;2.38;;
79583;SDS011;69053;57.338;18.700;2023-04-08T08:36:54;3.92;;;1.92;;
79583;SDS011;69053;57.338;18.700;2023-04-08T08:41:54;4.10;;;2.30;;
79583;SDS011;69053;57.338;18.700;2023-04-08T08:46:56;4.75;;;2.08;;
79583;SDS011;69053;57.338;18.700;2023-04-08T08:51:56;2.85;;;1.67;;
79583;SDS011;69053;57.338;18.700;2023-04-08T08:56:58;4.97;;;1.70;;
79583;SDS011;69053;57.338;18.700;2023-04-08T09:01:59;4.47;;;1.85;;
79583;SDS011;69053;57.338;18.700;2023-04-08T09:07:10;25.45;;;4.40;;
79583;SDS011;69053;57.338;18.700;2023-04-08T09:12:12;5.50;;;2.40;;
79583;SDS011;69053;57.338;18.700;2023-04-08T09:17:13;4.78;;;1.83;;
79583;SDS011;69053;57.338;18.700;2023-04-08T09:22:14;3.50;;;1.80;;
79583;SDS011;69053;57.338;18.700;2023-04-08T09:27:15;3.60;;;1.50;;
79583;SDS011;69053;57.338;18.700;2023-04-08T09:32:16;3.78;;;1.80;;
79583;SDS011;69053;57.338;18.700;2023-04-08T09:37:16;3.35;;;1.25;;
79583;SDS011;69053;57.338;18.700;2023-04-08T09:42:17;2.88;;;1.23;;
79583;SDS011;69053;57.338;18.700;2023-04-08T09:47:21;4.13;;;1.70;;
79583;SDS011;69053;57.338;18.700;2023-04-08T09:57:45;4.78;;;1.73;;
79583;SDS011;69053;57.338;18.700;2023-04-08T10:08:29;6.22;;;1.40;;
79583;SDS011;69053;57.338;18.700;2023-04-08T10:13:31;4.55;;;1.75;;
79583;SDS011;69053;57.338;18.700;2023-04-08T10:18:32;3.20;;;1.67;;
79583;SDS011;69053;57.338;18.700;2023-04-08T10:23:52;5.05;;;1.75;;
79583;SDS011;69053;57.338;18.700;2023-04-08T10:28:55;4.47;;;1.40;;
79583;SDS011;69053;57.338;18.700;2023-04-08T10:34:19;2.85;;;1.40;;
79583;SDS011;69053;57.338;18.700;2023-04-08T10:39:21;3.25;;;1.40;;
79583;SDS011;69053;57.338;18.700;2023-04-08T10:44:24;5.13;;;1.58;;
79583;SDS011;69053;57.338;18.700;2023-04-08T10:49:34;2.45;;;1.33;;
79583;SDS011;69053;57.338;18.700;2023-04-08T10:54:36;5.22;;;1.65;;
79583;SDS011;69053;57.338;18.700;2023-04-08T10:59:37;2.03;;;1.27;;
79583;SDS011;69053;57.338;18.700;2023-04-08T11:04:41;3.25;;;1.60;;
79583;SDS011;69053;57.338;18.700;2023-04-08T11:09:43;3.05;;;1.42;;
79583;SDS011;69053;57.338;18.700;2023-04-08T11:14:48;3.50;;;1.75;;
79583;SDS011;69053;57.338;18.700;2023-04-08T11:19:51;2.83;;;1.60;;
79583;SDS011;69053;57.338;18.700;2023-04-08T11:24:52;2.58;;;1.40;;
79583;SDS011;69053;57.338;18.700;2023-04-08T11:29:56;4.15;;;1.77;;
79583;SDS011;69053;57.338;18.700;2023-04-08T11:35:04;6.13;;;2.38;;
79583;SDS011;69053;57.338;18.700;2023-04-08T11:40:20;7.30;;;3.42;;
79583;SDS011;69053;57.338;18.700;2023-04-08T11:45:36;9.10;;;3.50;;
79583;SDS011;69053;57.338;18.700;2023-04-08T11:51:00;6.38;;;2.90;;
79583;SDS011;69053;57.338;18.700;2023-04-08T11:56:16;3.53;;;1.70;;
79583;SDS011;69053;57.338;18.700;2023-04-08T12:01:30;2.22;;;1.00;;
79583;SDS011;69053;57.338;18.700;2023-04-08T12:06:40;3.05;;;1.83;;
79583;SDS011;69053;57.338;18.700;2023-04-08T12:11:50;3.55;;;2.05;;
79583;SDS011;69053;57.338;18.700;2023-04-08T12:17:04;3.72;;;1.55;;
79583;SDS011;69053;57.338;18.700;2023-04-08T12:22:17;3.50;;;1.45;;
79583;SDS011;69053;57.338;18.700;2023-04-08T12:27:46;3.58;;;1.83;;
79583;SDS011;69053;57.338;18.700;2023-04-08T12:32:47;2.78;;;1.35;;
79583;SDS011;69053;57.338;18.700;2023-04-08T12:43:32;3.38;;;1.20;;
79583;SDS011;69053;57.338;18.700;2023-04-08T12:54:47;1.75;;;1.00;;
79583;SDS011;69053;57.338;18.700;2023-04-08T13:00:06;2.70;;;1.00;;
79583;SDS011;69053;57.338;18.700;2023-04-08T13:05:21;2.13;;;1.00;;
79583;SDS011;69053;57.338;18.700;2023-04-08T13:10:32;3.63;;;1.20;;
79583;SDS011;69053;57.338;18.700;2023-04-08T13:21:27;2.63;;;1.00;;
79583;SDS011;69053;57.338;18.700;2023-04-08T13:26:55;3.45;;;1.20;;
79583;SDS011;69053;57.338;18.700;2023-04-08T13:32:01;3.13;;;1.13;;
79583;SDS011;69053;57.338;18.700;2023-04-08T13:37:01;3.33;;;1.15;;
79583;SDS011;69053;57.338;18.700;2023-04-08T13:42:02;3.60;;;1.40;;
79583;SDS011;69053;57.338;18.700;2023-04-08T13:47:13;3.25;;;1.27;;
79583;SDS011;69053;57.338;18.700;2023-04-08T13:52:13;3.33;;;0.98;;
79583;SDS011;69053;57.338;18.700;2023-04-08T13:57:14;1.73;;;0.77;;
79583;SDS011;69053;57.338;18.700;2023-04-08T14:02:15;3.63;;;1.20;;
79583;SDS011;69053;57.338;18.700;2023-04-08T14:07:16;3.33;;;0.77;;
79583;SDS011;69053;57.338;18.700;2023-04-08T14:12:20;3.03;;;1.00;;
79583;SDS011;69053;57.338;18.700;2023-04-08T14:17:56;1.85;;;1.25;;
79583;SDS011;69053;57.338;18.700;2023-04-08T14:29:09;2.92;;;1.05;;
79583;SDS011;69053;57.338;18.700;2023-04-08T14:34:28;2.45;;;1.20;;
79583;SDS011;69053;57.338;18.700;2023-04-08T14:40:05;1.35;;;1.15;;
79583;SDS011;69053;57.338;18.700;2023-04-08T14:45:43;1.92;;;0.90;;
79583;SDS011;69053;57.338;18.700;2023-04-08T14:50:47;1.90;;;0.90;;
79583;SDS011;69053;57.338;18.700;2023-04-08T15:01:34;2.80;;;1.17;;
79583;SDS011;69053;57.338;18.700;2023-04-08T15:30:26;6.72;;;2.13;;
79583;SDS011;69053;57.338;18.700;2023-04-08T15:36:03;3.58;;;2.33;;
79583;SDS011;69053;57.338;18.700;2023-04-08T15:41:13;5.85;;;2.72;;
79583;SDS011;69053;57.338;18.700;2023-04-08T15:46:18;5.32;;;3.15;;
79583;SDS011;69053;57.338;18.700;2023-04-08T15:51:40;4.75;;;3.13;;
79583;SDS011;69053;57.338;18.700;2023-04-08T15:56:45;7.03;;;3.30;;
79583;SDS011;69053;57.338;18.700;2023-04-08T16:01:54;6.60;;;2.85;;
79583;SDS011;69053;57.338;18.700;2023-04-08T16:07:15;5.43;;;3.38;;
79583;SDS011;69053;57.338;18.700;2023-04-08T16:12:18;5.55;;;3.05;;
79583;SDS011;69053;57.338;18.700;2023-04-08T16:17:24;4.00;;;2.53;;
79583;SDS011;69053;57.338;18.700;2023-04-08T16:22:25;6.35;;;2.95;;
79583;SDS011;69053;57.338;18.700;2023-04-08T16:27:26;5.85;;;2.97;;
79583;SDS011;69053;57.338;18.700;2023-04-08T16:32:29;5.22;;;2.65;;
79583;SDS011;69053;57.338;18.700;2023-04-08T16:37:30;4.60;;;2.72;;
79583;SDS011;69053;57.338;18.700;2023-04-08T16:42:31;5.00;;;2.28;;
79583;SDS011;69053;57.338;18.700;2023-04-08T16:47:32;5.82;;;2.42;;
79583;SDS011;69053;57.338;18.700;2023-04-08T16:52:35;4.60;;;2.53;;
79583;SDS011;69053;57.338;18.700;2023-04-08T16:57:38;3.88;;;2.20;;
79583;SDS011;69053;57.338;18.700;2023-04-08T17:02:39;3.58;;;2.15;;
79583;SDS011;69053;57.338;18.700;2023-04-08T17:07:40;2.70;;;2.05;;
79583;SDS011;69053;57.338;18.700;2023-04-08T17:12:46;3.13;;;1.88;;
79583;SDS011;69053;57.338;18.700;2023-04-08T17:17:54;3.55;;;2.15;;
79583;SDS011;69053;57.338;18.700;2023-04-08T17:22:57;4.32;;;2.25;;
79583;SDS011;69053;57.338;18.700;2023-04-08T17:28:00;3.17;;;1.75;;
79583;SDS011;69053;57.338;18.700;2023-04-08T17:33:03;3.88;;;2.10;;
79583;SDS011;69053;57.338;18.700;2023-04-08T17:38:04;2.88;;;1.48;;
79583;SDS011;69053;57.338;18.700;2023-04-08T17:43:09;3.83;;;1.50;;
79583;SDS011;69053;57.338;18.700;2023-04-08T17:48:11;3.15;;;1.65;;
79583;SDS011;69053;57.338;18.700;2023-04-08T17:53:12;2.08;;;0.90;;
79583;SDS011;69053;57.338;18.700;2023-04-08T17:58:12;2.03;;;1.50;;
79583;SDS011;69053;57.338;18.700;2023-04-08T18:03:16;2.65;;;1.13;;
79583;SDS011;69053;57.338;18.700;2023-04-08T18:08:18;2.22;;;1.45;;
79583;SDS011;69053;57.338;18.700;2023-04-08T18:13:19;1.80;;;1.02;;
79583;SDS011;69053;57.338;18.700;2023-04-08T18:18:19;6.07;;;2.88;;
79583;SDS011;69053;57.338;18.700;2023-04-08T18:23:21;3.67;;;1.15;;
79583;SDS011;69053;57.338;18.700;2023-04-08T18:28:24;1.48;;;0.80;;
79583;SDS011;69053;57.338;18.700;2023-04-08T18:33:27;1.65;;;0.75;;
79583;SDS011;69053;57.338;18.700;2023-04-08T18:38:40;1.65;;;0.80;;
79583;SDS011;69053;57.338;18.700;2023-04-08T18:43:53;1.80;;;1.00;;
79583;SDS011;69053;57.338;18.700;2023-04-08T18:49:27;1.30;;;0.90;;
79583;SDS011;69053;57.338;18.700;2023-04-08T18:54:32;1.48;;;1.00;;
79583;SDS011;69053;57.338;18.700;2023-04-08T18:59:46;0.85;;;0.50;;
79583;SDS011;69053;57.338;18.700;2023-04-08T19:04:56;1.30;;;0.70;;
79583;SDS011;69053;57.338;18.700;2023-04-08T19:09:57;2.03;;;0.90;;
79583;SDS011;69053;57.338;18.700;2023-04-08T19:14:58;1.08;;;0.47;;
79583;SDS011;69053;57.338;18.700;2023-04-08T19:20:08;2.05;;;1.40;;
79583;SDS011;69053;57.338;18.700;2023-04-08T19:25:11;2.03;;;1.08;;
79583;SDS011;69053;57.338;18.700;2023-04-08T19:30:21;1.38;;;0.75;;
79583;SDS011;69053;57.338;18.700;2023-04-08T19:35:24;1.67;;;0.85;;
79583;SDS011;69053;57.338;18.700;2023-04-08T19:40:25;2.53;;;0.80;;
79583;SDS011;69053;57.338;18.700;2023-04-08T19:45:26;1.60;;;0.50;;
79583;SDS011;69053;57.338;18.700;2023-04-08T19:50:26;2.08;;;0.73;;
79583;SDS011;69053;57.338;18.700;2023-04-08T19:55:27;2.38;;;0.80;;
79583;SDS011;69053;57.338;18.700;2023-04-08T20:00:28;0.93;;;0.65;;
79583;SDS011;69053;57.338;18.700;2023-04-08T20:05:32;1.15;;;0.70;;
79583;SDS011;69053;57.338;18.700;2023-04-08T20:10:32;2.10;;;0.90;;
79583;SDS011;69053;57.338;18.700;2023-04-08T20:15:34;1.58;;;0.90;;
79583;SDS011;69053;57.338;18.700;2023-04-08T20:20:38;1.80;;;0.88;;
79583;SDS011;69053;57.338;18.700;2023-04-08T20:25:42;1.52;;;0.73;;
79583;SDS011;69053;57.338;18.700;2023-04-08T20:30:43;1.77;;;0.60;;
79583;SDS011;69053;57.338;18.700;2023-04-08T20:35:44;0.95;;;0.55;;
79583;SDS011;69053;57.338;18.700;2023-04-08T20:40:46;1.30;;;0.88;;
79583;SDS011;69053;57.338;18.700;2023-04-08T20:45:47;1.10;;;0.65;;
79583;SDS011;69053;57.338;18.700;2023-04-08T20:50:48;1.95;;;0.82;;
79583;SDS011;69053;57.338;18.700;2023-04-08T20:55:51;2.42;;;0.80;;
79583;SDS011;69053;57.338;18.700;2023-04-08T21:00:52;1.20;;;0.50;;
79583;SDS011;69053;57.338;18.700;2023-04-08T21:05:52;0.93;;;0.40;;
79583;SDS011;69053;57.338;18.700;2023-04-08T21:10:54;0.73;;;0.50;;
79583;SDS011;69053;57.338;18.700;2023-04-08T21:15:55;1.73;;;0.63;;
79583;SDS011;69053;57.338;18.700;2023-04-08T21:20:55;1.00;;;0.60;;
79583;SDS011;69053;57.338;18.700;2023-04-08T21:25:56;1.30;;;0.50;;
79583;SDS011;69053;57.338;18.700;2023-04-08T21:31:05;1.40;;;0.80;;
79583;SDS011;69053;57.338;18.700;2023-04-08T21:36:07;0.50;;;0.32;;
79583;SDS011;69053;57.338;18.700;2023-04-08T21:41:07;2.65;;;0.73;;
79583;SDS011;69053;57.338;18.700;2023-04-08T21:46:08;2.15;;;0.80;;
79583;SDS011;69053;57.338;18.700;2023-04-08T21:51:13;1.25;;;0.70;;
79583;SDS011;69053;57.338;18.700;2023-04-08T21:56:14;2.30;;;0.50;;
79583;SDS011;69053;57.338;18.700;2023-04-08T22:01:16;1.70;;;0.50;;
79583;SDS011;69053;57.338;18.700;2023-04-08T22:06:16;1.05;;;0.60;;
79583;SDS011;69053;57.338;18.700;2023-04-08T22:11:17;0.40;;;0.32;;
79583;SDS011;69053;57.338;18.700;2023-04-08T22:16:18;0.70;;;0.40;;
79583;SDS011;69053;57.338;18.700;2023-04-08T22:21:18;1.80;;;0.65;;
79583;SDS011;69053;57.338;18.700;2023-04-08T22:26:20;2.33;;;0.60;;
79583;SDS011;69053;57.338;18.700;2023-04-08T22:31:20;1.85;;;0.50;;
79583;SDS011;69053;57.338;18.700;2023-04-08T22:36:21;2.90;;;0.73;;
79583;SDS011;69053;57.338;18.700;2023-04-08T22:41:22;2.33;;;0.70;;
79583;SDS011;69053;57.338;18.700;2023-04-08T22:46:22;0.80;;;0.50;;
79583;SDS011;69053;57.338;18.700;2023-04-08T22:51:23;1.20;;;0.50;;
79583;SDS011;69053;57.338;18.700;2023-04-08T22:56:23;1.63;;;0.60;;
79583;SDS011;69053;57.338;18.700;2023-04-08T23:01:25;0.88;;;0.50;;
79583;SDS011;69053;57.338;18.700;2023-04-08T23:06:25;1.40;;;0.60;;
79583;SDS011;69053;57.338;18.700;2023-04-08T23:11:27;2.67;;;0.68;;
79583;SDS011;69053;57.338;18.700;2023-04-08T23:16:28;1.20;;;0.45;;
79583;SDS011;69053;57.338;18.700;2023-04-08T23:21:29;1.40;;;0.68;;
79583;SDS011;69053;57.338;18.700;2023-04-08T23:26:30;2.53;;;0.55;;
79583;SDS011;69053;57.338;18.700;2023-04-08T23:31:30;1.70;;;0.68;;
79583;SDS011;69053;57.338;18.700;2023-04-08T23:36:31;1.75;;;0.60;;
79583;SDS011;69053;57.338;18.700;2023-04-08T23:41:31;1.95;;;0.70;;
79583;SDS011;69053;57.338;18.700;2023-04-08T23:46:32;1.35;;;0.82;;
79583;SDS011;69053;57.338;18.700;2023-04-08T23:51:32;0.90;;;0.43;;
79583;SDS011;69053;57.338;18.700;2023-04-08T23:56:34;1.70;;;0.68;;
